sensor_id;sensor_type;location;lat;lon;timestamp;P1;durP1;ratioP1;P2;durP2;ratioP2
66751;SDS011;53663;42.676;23.238;2023-02-12T00:02:08;12.70;;;5.88;;
66751;SDS011;53663;42.676;23.238;2023-02-12T00:04:34;12.48;;;5.50;;
66751;SDS011;53663;42.676;23.238;2023-02-12T00:07:00;13.38;;;5.35;;
66751;SDS011;53663;42.676;23.238;2023-02-12T00:09:25;12.98;;;5.00;;
66751;SDS011;53663;42.676;23.238;2023-02-12T00:11:51;11.32;;;5.45;;
66751;SDS011;53663;42.676;23.238;2023-02-12T00:14:16;10.77;;;5.85;;
66751;SDS011;53663;42.676;23.238;2023-02-12T00:16:42;10.05;;;5.70;;
66751;SDS011;53663;42.676;23.238;2023-02-12T00:19:08;9.80;;;5.28;;
66751;SDS011;53663;42.676;23.238;2023-02-12T00:21:33;11.05;;;5.60;;
66751;SDS011;53663;42.676;23.238;2023-02-12T00:24:00;12.35;;;5.45;;
66751;SDS011;53663;42.676;23.238;2023-02-12T00:26:26;12.80;;;6.10;;
66751;SDS011;53663;42.676;23.238;2023-02-12T00:28:52;11.55;;;5.65;;
66751;SDS011;53663;42.676;23.238;2023-02-12T00:31:20;10.23;;;5.38;;
66751;SDS011;53663;42.676;23.238;2023-02-12T00:33:48;12.35;;;5.70;;
66751;SDS011;53663;42.676;23.238;2023-02-12T00:36:14;9.45;;;5.13;;
66751;SDS011;53663;42.676;23.238;2023-02-12T00:38:42;11.82;;;5.07;;
66751;SDS011;53663;42.676;23.238;2023-02-12T00:41:08;11.90;;;5.20;;
66751;SDS011;53663;42.676;23.238;2023-02-12T00:43:34;10.18;;;4.93;;
66751;SDS011;53663;42.676;23.238;2023-02-12T00:46:00;11.98;;;5.07;;
66751;SDS011;53663;42.676;23.238;2023-02-12T00:48:25;9.15;;;5.03;;
66751;SDS011;53663;42.676;23.238;2023-02-12T00:50:51;11.45;;;5.55;;
66751;SDS011;53663;42.676;23.238;2023-02-12T00:53:16;10.23;;;5.30;;
66751;SDS011;53663;42.676;23.238;2023-02-12T00:55:42;12.27;;;5.93;;
66751;SDS011;53663;42.676;23.238;2023-02-12T00:58:08;9.32;;;5.07;;
66751;SDS011;53663;42.676;23.238;2023-02-12T01:00:34;20.35;;;7.90;;
66751;SDS011;53663;42.676;23.238;2023-02-12T01:03:00;25.63;;;10.02;;
66751;SDS011;53663;42.676;23.238;2023-02-12T01:05:25;10.18;;;5.70;;
66751;SDS011;53663;42.676;23.238;2023-02-12T01:07:51;8.98;;;5.05;;
66751;SDS011;53663;42.676;23.238;2023-02-12T01:10:18;11.07;;;5.50;;
66751;SDS011;53663;42.676;23.238;2023-02-12T01:12:45;9.75;;;5.10;;
66751;SDS011;53663;42.676;23.238;2023-02-12T01:15:11;9.15;;;4.95;;
66751;SDS011;53663;42.676;23.238;2023-02-12T01:17:37;8.93;;;5.07;;
66751;SDS011;53663;42.676;23.238;2023-02-12T01:20:04;13.68;;;6.88;;
66751;SDS011;53663;42.676;23.238;2023-02-12T01:22:34;18.30;;;7.65;;
66751;SDS011;53663;42.676;23.238;2023-02-12T01:25:01;10.70;;;5.68;;
66751;SDS011;53663;42.676;23.238;2023-02-12T01:27:27;12.75;;;6.13;;
66751;SDS011;53663;42.676;23.238;2023-02-12T01:29:54;16.38;;;6.28;;
66751;SDS011;53663;42.676;23.238;2023-02-12T01:32:20;11.45;;;6.45;;
66751;SDS011;53663;42.676;23.238;2023-02-12T01:34:46;10.07;;;5.57;;
66751;SDS011;53663;42.676;23.238;2023-02-12T01:37:11;11.07;;;5.20;;
66751;SDS011;53663;42.676;23.238;2023-02-12T01:39:38;13.40;;;5.68;;
66751;SDS011;53663;42.676;23.238;2023-02-12T01:42:03;10.60;;;5.88;;
66751;SDS011;53663;42.676;23.238;2023-02-12T01:44:31;12.57;;;6.15;;
66751;SDS011;53663;42.676;23.238;2023-02-12T01:47:03;12.50;;;6.00;;
66751;SDS011;53663;42.676;23.238;2023-02-12T01:49:37;15.02;;;6.47;;
66751;SDS011;53663;42.676;23.238;2023-02-12T01:52:05;14.65;;;6.28;;
66751;SDS011;53663;42.676;23.238;2023-02-12T01:54:35;15.68;;;6.82;;
66751;SDS011;53663;42.676;23.238;2023-02-12T01:57:01;12.05;;;6.32;;
66751;SDS011;53663;42.676;23.238;2023-02-12T01:59:29;12.57;;;6.32;;
66751;SDS011;53663;42.676;23.238;2023-02-12T02:01:56;13.38;;;6.68;;
66751;SDS011;53663;42.676;23.238;2023-02-12T02:04:28;13.50;;;6.82;;
66751;SDS011;53663;42.676;23.238;2023-02-12T02:07:02;15.80;;;5.55;;
66751;SDS011;53663;42.676;23.238;2023-02-12T02:09:30;12.25;;;6.40;;
66751;SDS011;53663;42.676;23.238;2023-02-12T02:14:44;11.13;;;5.78;;
66751;SDS011;53663;42.676;23.238;2023-02-12T02:17:17;15.43;;;6.95;;
66751;SDS011;53663;42.676;23.238;2023-02-12T02:30:44;13.70;;;7.07;;
66751;SDS011;53663;42.676;23.238;2023-02-12T02:38:40;13.30;;;6.30;;
66751;SDS011;53663;42.676;23.238;2023-02-12T02:41:09;13.68;;;7.32;;
66751;SDS011;53663;42.676;23.238;2023-02-12T02:43:43;13.45;;;6.35;;
66751;SDS011;53663;42.676;23.238;2023-02-12T02:46:15;12.13;;;6.30;;
66751;SDS011;53663;42.676;23.238;2023-02-12T02:48:48;15.02;;;6.78;;
66751;SDS011;53663;42.676;23.238;2023-02-12T02:51:20;12.70;;;6.53;;
66751;SDS011;53663;42.676;23.238;2023-02-12T02:53:57;15.05;;;6.97;;
66751;SDS011;53663;42.676;23.238;2023-02-12T02:56:29;12.73;;;6.63;;
66751;SDS011;53663;42.676;23.238;2023-02-12T02:59:07;14.45;;;6.88;;
66751;SDS011;53663;42.676;23.238;2023-02-12T03:01:41;17.15;;;7.47;;
66751;SDS011;53663;42.676;23.238;2023-02-12T03:04:23;16.40;;;7.07;;
66751;SDS011;53663;42.676;23.238;2023-02-12T03:07:05;15.88;;;6.53;;
66751;SDS011;53663;42.676;23.238;2023-02-12T03:09:38;18.17;;;6.85;;
66751;SDS011;53663;42.676;23.238;2023-02-12T03:12:10;14.80;;;7.03;;
66751;SDS011;53663;42.676;23.238;2023-02-12T03:19:40;13.05;;;6.65;;
66751;SDS011;53663;42.676;23.238;2023-02-12T03:22:17;15.40;;;6.88;;
66751;SDS011;53663;42.676;23.238;2023-02-12T03:27:19;16.63;;;7.55;;
66751;SDS011;53663;42.676;23.238;2023-02-12T03:29:57;17.60;;;8.35;;
66751;SDS011;53663;42.676;23.238;2023-02-12T03:40:31;16.65;;;6.90;;
66751;SDS011;53663;42.676;23.238;2023-02-12T03:43:03;15.75;;;7.35;;
66751;SDS011;53663;42.676;23.238;2023-02-12T03:48:24;14.50;;;7.18;;
66751;SDS011;53663;42.676;23.238;2023-02-12T03:53:35;13.98;;;6.82;;
66751;SDS011;53663;42.676;23.238;2023-02-12T03:56:03;13.02;;;6.78;;
66751;SDS011;53663;42.676;23.238;2023-02-12T03:58:34;14.30;;;7.38;;
66751;SDS011;53663;42.676;23.238;2023-02-12T04:01:02;13.55;;;6.25;;
66751;SDS011;53663;42.676;23.238;2023-02-12T04:03:28;12.82;;;6.43;;
66751;SDS011;53663;42.676;23.238;2023-02-12T04:05:54;13.05;;;7.00;;
66751;SDS011;53663;42.676;23.238;2023-02-12T04:08:20;15.50;;;8.00;;
66751;SDS011;53663;42.676;23.238;2023-02-12T04:10:55;14.73;;;7.22;;
66751;SDS011;53663;42.676;23.238;2023-02-12T04:19:05;16.73;;;7.30;;
66751;SDS011;53663;42.676;23.238;2023-02-12T04:27:44;12.90;;;6.40;;
66751;SDS011;53663;42.676;23.238;2023-02-12T04:33:03;14.98;;;6.72;;
66751;SDS011;53663;42.676;23.238;2023-02-12T04:38:02;21.75;;;7.57;;
66751;SDS011;53663;42.676;23.238;2023-02-12T04:40:31;13.48;;;7.07;;
66751;SDS011;53663;42.676;23.238;2023-02-12T04:42:56;14.35;;;7.25;;
66751;SDS011;53663;42.676;23.238;2023-02-12T04:45:27;13.40;;;7.10;;
66751;SDS011;53663;42.676;23.238;2023-02-12T04:47:54;15.98;;;7.28;;
66751;SDS011;53663;42.676;23.238;2023-02-12T04:50:21;13.05;;;6.43;;
66751;SDS011;53663;42.676;23.238;2023-02-12T04:52:46;15.27;;;6.90;;
66751;SDS011;53663;42.676;23.238;2023-02-12T04:55:12;12.20;;;6.78;;
66751;SDS011;53663;42.676;23.238;2023-02-12T04:57:38;12.60;;;6.57;;
66751;SDS011;53663;42.676;23.238;2023-02-12T05:00:04;13.77;;;7.03;;
66751;SDS011;53663;42.676;23.238;2023-02-12T05:02:32;12.82;;;6.88;;
66751;SDS011;53663;42.676;23.238;2023-02-12T05:04:58;16.83;;;6.97;;
66751;SDS011;53663;42.676;23.238;2023-02-12T05:07:24;12.50;;;7.25;;
66751;SDS011;53663;42.676;23.238;2023-02-12T05:09:49;14.07;;;6.80;;
66751;SDS011;53663;42.676;23.238;2023-02-12T05:12:15;16.88;;;7.28;;
66751;SDS011;53663;42.676;23.238;2023-02-12T05:14:40;13.75;;;6.65;;
66751;SDS011;53663;42.676;23.238;2023-02-12T05:17:06;17.67;;;6.85;;
66751;SDS011;53663;42.676;23.238;2023-02-12T05:19:31;12.98;;;6.90;;
66751;SDS011;53663;42.676;23.238;2023-02-12T05:21:57;15.35;;;7.07;;
66751;SDS011;53663;42.676;23.238;2023-02-12T05:24:22;16.42;;;7.18;;
66751;SDS011;53663;42.676;23.238;2023-02-12T05:26:48;13.35;;;6.97;;
66751;SDS011;53663;42.676;23.238;2023-02-12T05:29:14;15.05;;;7.22;;
66751;SDS011;53663;42.676;23.238;2023-02-12T05:31:40;15.45;;;7.05;;
66751;SDS011;53663;42.676;23.238;2023-02-12T05:34:05;17.13;;;7.70;;
66751;SDS011;53663;42.676;23.238;2023-02-12T05:36:33;17.10;;;7.53;;
66751;SDS011;53663;42.676;23.238;2023-02-12T05:38:59;21.92;;;7.93;;
66751;SDS011;53663;42.676;23.238;2023-02-12T05:41:24;14.63;;;7.28;;
66751;SDS011;53663;42.676;23.238;2023-02-12T05:43:50;15.82;;;7.97;;
66751;SDS011;53663;42.676;23.238;2023-02-12T05:46:17;17.30;;;8.77;;
66751;SDS011;53663;42.676;23.238;2023-02-12T05:48:43;17.73;;;8.05;;
66751;SDS011;53663;42.676;23.238;2023-02-12T05:51:10;14.18;;;8.23;;
66751;SDS011;53663;42.676;23.238;2023-02-12T05:53:38;18.80;;;8.05;;
66751;SDS011;53663;42.676;23.238;2023-02-12T05:56:06;18.52;;;8.88;;
66751;SDS011;53663;42.676;23.238;2023-02-12T05:58:56;18.05;;;8.45;;
66751;SDS011;53663;42.676;23.238;2023-02-12T06:01:31;15.75;;;8.38;;
66751;SDS011;53663;42.676;23.238;2023-02-12T06:04:02;16.20;;;8.48;;
66751;SDS011;53663;42.676;23.238;2023-02-12T06:06:29;15.07;;;7.70;;
66751;SDS011;53663;42.676;23.238;2023-02-12T06:08:57;16.45;;;8.00;;
66751;SDS011;53663;42.676;23.238;2023-02-12T06:11:23;13.48;;;7.57;;
66751;SDS011;53663;42.676;23.238;2023-02-12T06:13:49;15.45;;;8.50;;
66751;SDS011;53663;42.676;23.238;2023-02-12T06:16:23;14.55;;;7.68;;
66751;SDS011;53663;42.676;23.238;2023-02-12T06:18:51;15.18;;;7.18;;
66751;SDS011;53663;42.676;23.238;2023-02-12T06:21:18;12.25;;;6.63;;
66751;SDS011;53663;42.676;23.238;2023-02-12T06:23:45;12.40;;;7.43;;
66751;SDS011;53663;42.676;23.238;2023-02-12T06:26:11;17.25;;;7.63;;
66751;SDS011;53663;42.676;23.238;2023-02-12T06:28:37;13.02;;;7.22;;
66751;SDS011;53663;42.676;23.238;2023-02-12T06:31:02;15.63;;;7.50;;
66751;SDS011;53663;42.676;23.238;2023-02-12T06:33:29;18.25;;;7.95;;
66751;SDS011;53663;42.676;23.238;2023-02-12T06:35:54;18.55;;;7.63;;
66751;SDS011;53663;42.676;23.238;2023-02-12T06:38:20;14.45;;;7.28;;
66751;SDS011;53663;42.676;23.238;2023-02-12T06:40:45;15.70;;;7.53;;
66751;SDS011;53663;42.676;23.238;2023-02-12T06:43:11;19.83;;;7.63;;
66751;SDS011;53663;42.676;23.238;2023-02-12T06:45:36;13.77;;;7.05;;
66751;SDS011;53663;42.676;23.238;2023-02-12T06:48:02;18.08;;;7.47;;
66751;SDS011;53663;42.676;23.238;2023-02-12T06:50:27;17.25;;;7.00;;
66751;SDS011;53663;42.676;23.238;2023-02-12T06:52:53;12.88;;;6.90;;
66751;SDS011;53663;42.676;23.238;2023-02-12T06:55:19;14.05;;;6.95;;
66751;SDS011;53663;42.676;23.238;2023-02-12T06:57:44;11.70;;;6.93;;
66751;SDS011;53663;42.676;23.238;2023-02-12T07:00:10;14.10;;;6.95;;
66751;SDS011;53663;42.676;23.238;2023-02-12T07:02:36;15.65;;;7.43;;
66751;SDS011;53663;42.676;23.238;2023-02-12T07:05:02;12.55;;;6.57;;
66751;SDS011;53663;42.676;23.238;2023-02-12T07:07:27;14.43;;;7.65;;
66751;SDS011;53663;42.676;23.238;2023-02-12T07:09:53;12.75;;;6.63;;
66751;SDS011;53663;42.676;23.238;2023-02-12T07:12:18;15.65;;;7.18;;
66751;SDS011;53663;42.676;23.238;2023-02-12T07:14:44;14.50;;;7.15;;
66751;SDS011;53663;42.676;23.238;2023-02-12T07:17:09;12.73;;;6.88;;
66751;SDS011;53663;42.676;23.238;2023-02-12T07:19:35;13.95;;;6.88;;
66751;SDS011;53663;42.676;23.238;2023-02-12T07:22:01;14.25;;;7.20;;
66751;SDS011;53663;42.676;23.238;2023-02-12T07:24:27;14.15;;;6.82;;
66751;SDS011;53663;42.676;23.238;2023-02-12T07:26:54;13.45;;;7.57;;
66751;SDS011;53663;42.676;23.238;2023-02-12T07:29:19;14.07;;;6.95;;
66751;SDS011;53663;42.676;23.238;2023-02-12T07:31:44;13.18;;;7.00;;
66751;SDS011;53663;42.676;23.238;2023-02-12T07:34:10;14.18;;;7.35;;
66751;SDS011;53663;42.676;23.238;2023-02-12T07:36:36;18.77;;;8.55;;
66751;SDS011;53663;42.676;23.238;2023-02-12T07:39:02;18.58;;;9.30;;
66751;SDS011;53663;42.676;23.238;2023-02-12T07:41:32;18.92;;;9.05;;
66751;SDS011;53663;42.676;23.238;2023-02-12T07:44:02;17.63;;;9.13;;
66751;SDS011;53663;42.676;23.238;2023-02-12T07:46:35;24.73;;;8.20;;
66751;SDS011;53663;42.676;23.238;2023-02-12T07:49:04;16.77;;;7.82;;
66751;SDS011;53663;42.676;23.238;2023-02-12T07:51:32;19.35;;;9.38;;
66751;SDS011;53663;42.676;23.238;2023-02-12T07:53:59;19.92;;;10.07;;
66751;SDS011;53663;42.676;23.238;2023-02-12T07:56:26;21.33;;;10.68;;
66751;SDS011;53663;42.676;23.238;2023-02-12T07:58:56;20.58;;;10.80;;
66751;SDS011;53663;42.676;23.238;2023-02-12T08:01:24;15.85;;;8.48;;
66751;SDS011;53663;42.676;23.238;2023-02-12T08:03:56;19.42;;;9.07;;
66751;SDS011;53663;42.676;23.238;2023-02-12T08:06:24;18.17;;;9.77;;
66751;SDS011;53663;42.676;23.238;2023-02-12T08:08:52;21.88;;;11.88;;
66751;SDS011;53663;42.676;23.238;2023-02-12T08:11:19;21.00;;;10.05;;
66751;SDS011;53663;42.676;23.238;2023-02-12T08:13:45;26.58;;;11.80;;
66751;SDS011;53663;42.676;23.238;2023-02-12T08:16:15;21.63;;;10.85;;
66751;SDS011;53663;42.676;23.238;2023-02-12T08:18:42;19.50;;;10.48;;
66751;SDS011;53663;42.676;23.238;2023-02-12T08:21:10;20.38;;;10.80;;
66751;SDS011;53663;42.676;23.238;2023-02-12T08:23:37;20.48;;;10.68;;
66751;SDS011;53663;42.676;23.238;2023-02-12T08:26:04;18.10;;;10.55;;
66751;SDS011;53663;42.676;23.238;2023-02-12T08:28:31;19.35;;;11.27;;
66751;SDS011;53663;42.676;23.238;2023-02-12T08:31:07;24.35;;;11.80;;
66751;SDS011;53663;42.676;23.238;2023-02-12T08:33:35;23.60;;;11.50;;
66751;SDS011;53663;42.676;23.238;2023-02-12T08:38:31;21.88;;;11.10;;
66751;SDS011;53663;42.676;23.238;2023-02-12T08:41:05;19.65;;;10.32;;
66751;SDS011;53663;42.676;23.238;2023-02-12T08:43:32;18.98;;;10.38;;
66751;SDS011;53663;42.676;23.238;2023-02-12T08:46:12;18.05;;;10.35;;
66751;SDS011;53663;42.676;23.238;2023-02-12T08:48:43;17.60;;;10.38;;
66751;SDS011;53663;42.676;23.238;2023-02-12T08:53:39;17.95;;;9.77;;
66751;SDS011;53663;42.676;23.238;2023-02-12T08:56:06;16.17;;;9.32;;
66751;SDS011;53663;42.676;23.238;2023-02-12T08:58:32;20.65;;;9.63;;
66751;SDS011;53663;42.676;23.238;2023-02-12T09:00:59;19.13;;;9.88;;
66751;SDS011;53663;42.676;23.238;2023-02-12T09:03:25;15.80;;;8.73;;
66751;SDS011;53663;42.676;23.238;2023-02-12T09:05:50;14.68;;;8.52;;
66751;SDS011;53663;42.676;23.238;2023-02-12T09:08:16;19.50;;;9.75;;
66751;SDS011;53663;42.676;23.238;2023-02-12T09:10:42;18.17;;;10.18;;
66751;SDS011;53663;42.676;23.238;2023-02-12T09:13:09;15.55;;;9.23;;
66751;SDS011;53663;42.676;23.238;2023-02-12T09:15:36;18.15;;;9.38;;
66751;SDS011;53663;42.676;23.238;2023-02-12T09:18:02;20.25;;;9.60;;
66751;SDS011;53663;42.676;23.238;2023-02-12T09:20:28;18.55;;;10.52;;
66751;SDS011;53663;42.676;23.238;2023-02-12T09:22:54;22.17;;;11.65;;
66751;SDS011;53663;42.676;23.238;2023-02-12T09:25:21;21.13;;;11.35;;
66751;SDS011;53663;42.676;23.238;2023-02-12T09:27:47;22.00;;;10.85;;
66751;SDS011;53663;42.676;23.238;2023-02-12T09:30:13;19.27;;;10.23;;
66751;SDS011;53663;42.676;23.238;2023-02-12T09:32:38;19.73;;;9.68;;
66751;SDS011;53663;42.676;23.238;2023-02-12T09:35:04;16.48;;;9.63;;
66751;SDS011;53663;42.676;23.238;2023-02-12T09:37:30;14.82;;;8.88;;
66751;SDS011;53663;42.676;23.238;2023-02-12T09:39:55;17.98;;;10.32;;
66751;SDS011;53663;42.676;23.238;2023-02-12T09:42:26;19.23;;;10.57;;
66751;SDS011;53663;42.676;23.238;2023-02-12T09:45:02;19.73;;;10.85;;
66751;SDS011;53663;42.676;23.238;2023-02-12T09:47:46;21.48;;;11.35;;
66751;SDS011;53663;42.676;23.238;2023-02-12T09:55:29;17.30;;;10.02;;
66751;SDS011;53663;42.676;23.238;2023-02-12T09:57:57;22.02;;;11.77;;
66751;SDS011;53663;42.676;23.238;2023-02-12T10:00:26;24.25;;;12.45;;
66751;SDS011;53663;42.676;23.238;2023-02-12T10:02:56;20.52;;;10.63;;
66751;SDS011;53663;42.676;23.238;2023-02-12T10:05:27;24.80;;;12.30;;
66751;SDS011;53663;42.676;23.238;2023-02-12T10:10:52;26.30;;;13.85;;
66751;SDS011;53663;42.676;23.238;2023-02-12T10:27:16;26.67;;;13.82;;
66751;SDS011;53663;42.676;23.238;2023-02-12T10:29:45;24.88;;;12.63;;
66751;SDS011;53663;42.676;23.238;2023-02-12T10:34:54;21.90;;;12.68;;
66751;SDS011;53663;42.676;23.238;2023-02-12T10:40:17;27.00;;;12.80;;
66751;SDS011;53663;42.676;23.238;2023-02-12T10:42:48;23.92;;;12.50;;
66751;SDS011;53663;42.676;23.238;2023-02-12T10:45:17;26.40;;;13.90;;
66751;SDS011;53663;42.676;23.238;2023-02-12T10:47:45;29.80;;;13.55;;
66751;SDS011;53663;42.676;23.238;2023-02-12T10:50:23;26.23;;;13.65;;
66751;SDS011;53663;42.676;23.238;2023-02-12T10:53:00;23.98;;;12.43;;
66751;SDS011;53663;42.676;23.238;2023-02-12T10:55:31;25.75;;;13.45;;
66751;SDS011;53663;42.676;23.238;2023-02-12T10:58:00;26.75;;;12.98;;
66751;SDS011;53663;42.676;23.238;2023-02-12T11:00:36;29.88;;;13.90;;
66751;SDS011;53663;42.676;23.238;2023-02-12T11:05:41;24.08;;;13.65;;
66751;SDS011;53663;42.676;23.238;2023-02-12T11:10:52;31.95;;;14.15;;
66751;SDS011;53663;42.676;23.238;2023-02-12T11:13:21;26.27;;;12.85;;
66751;SDS011;53663;42.676;23.238;2023-02-12T11:18:20;27.88;;;13.15;;
66751;SDS011;53663;42.676;23.238;2023-02-12T11:20:51;30.17;;;14.70;;
66751;SDS011;53663;42.676;23.238;2023-02-12T11:23:29;23.65;;;12.38;;
66751;SDS011;53663;42.676;23.238;2023-02-12T11:28:25;22.40;;;12.35;;
66751;SDS011;53663;42.676;23.238;2023-02-12T11:33:27;28.05;;;15.40;;
66751;SDS011;53663;42.676;23.238;2023-02-12T11:35:59;30.20;;;15.60;;
66751;SDS011;53663;42.676;23.238;2023-02-12T11:38:29;28.98;;;13.85;;
66751;SDS011;53663;42.676;23.238;2023-02-12T11:40:58;26.48;;;13.05;;
66751;SDS011;53663;42.676;23.238;2023-02-12T11:43:26;27.50;;;13.23;;
66751;SDS011;53663;42.676;23.238;2023-02-12T11:45:55;23.38;;;12.52;;
66751;SDS011;53663;42.676;23.238;2023-02-12T11:48:26;26.85;;;13.15;;
66751;SDS011;53663;42.676;23.238;2023-02-12T11:53:41;26.15;;;13.13;;
66751;SDS011;53663;42.676;23.238;2023-02-12T11:56:08;23.63;;;12.63;;
66751;SDS011;53663;42.676;23.238;2023-02-12T11:58:36;27.52;;;13.30;;
66751;SDS011;53663;42.676;23.238;2023-02-12T12:01:04;24.15;;;12.45;;
66751;SDS011;53663;42.676;23.238;2023-02-12T12:12:10;25.25;;;12.45;;
66751;SDS011;53663;42.676;23.238;2023-02-12T12:14:47;26.30;;;13.90;;
66751;SDS011;53663;42.676;23.238;2023-02-12T12:20:48;23.27;;;13.07;;
66751;SDS011;53663;42.676;23.238;2023-02-12T12:23:16;21.65;;;12.35;;
66751;SDS011;53663;42.676;23.238;2023-02-12T12:25:52;22.85;;;12.68;;
66751;SDS011;53663;42.676;23.238;2023-02-12T12:44:52;29.67;;;16.50;;
66751;SDS011;53663;42.676;23.238;2023-02-12T13:14:48;30.25;;;15.07;;
66751;SDS011;53663;42.676;23.238;2023-02-12T13:19:54;30.95;;;15.18;;
66751;SDS011;53663;42.676;23.238;2023-02-12T13:27:55;27.15;;;16.10;;
66751;SDS011;53663;42.676;23.238;2023-02-12T13:30:25;27.77;;;15.80;;
66751;SDS011;53663;42.676;23.238;2023-02-12T13:35:40;31.27;;;15.98;;
66751;SDS011;53663;42.676;23.238;2023-02-12T13:38:10;30.88;;;17.13;;
66751;SDS011;53663;42.676;23.238;2023-02-12T13:40:43;33.35;;;16.95;;
66751;SDS011;53663;42.676;23.238;2023-02-12T13:43:31;29.30;;;16.08;;
66751;SDS011;53663;42.676;23.238;2023-02-12T13:46:20;30.60;;;15.52;;
66751;SDS011;53663;42.676;23.238;2023-02-12T13:49:05;26.77;;;15.10;;
66751;SDS011;53663;42.676;23.238;2023-02-12T13:57:35;30.48;;;15.63;;
66751;SDS011;53663;42.676;23.238;2023-02-12T14:00:01;26.13;;;15.20;;
66751;SDS011;53663;42.676;23.238;2023-02-12T14:05:02;28.42;;;14.90;;
66751;SDS011;53663;42.676;23.238;2023-02-12T14:07:49;29.55;;;14.70;;
66751;SDS011;53663;42.676;23.238;2023-02-12T14:10:21;27.95;;;15.98;;
66751;SDS011;53663;42.676;23.238;2023-02-12T14:12:48;27.45;;;15.63;;
66751;SDS011;53663;42.676;23.238;2023-02-12T14:20:32;30.00;;;15.73;;
66751;SDS011;53663;42.676;23.238;2023-02-12T14:23:00;29.42;;;15.25;;
66751;SDS011;53663;42.676;23.238;2023-02-12T14:26:07;28.75;;;16.30;;
66751;SDS011;53663;42.676;23.238;2023-02-12T14:33:48;29.70;;;17.50;;
66751;SDS011;53663;42.676;23.238;2023-02-12T14:49:22;37.22;;;18.35;;
66751;SDS011;53663;42.676;23.238;2023-02-12T14:54:26;28.92;;;17.67;;
66751;SDS011;53663;42.676;23.238;2023-02-12T14:57:19;37.88;;;19.65;;
66751;SDS011;53663;42.676;23.238;2023-02-12T15:02:53;31.75;;;17.17;;
66751;SDS011;53663;42.676;23.238;2023-02-12T15:19:31;38.88;;;20.13;;
66751;SDS011;53663;42.676;23.238;2023-02-12T15:21:58;33.22;;;18.10;;
66751;SDS011;53663;42.676;23.238;2023-02-12T15:24:24;33.15;;;18.48;;
66751;SDS011;53663;42.676;23.238;2023-02-12T15:26:51;33.15;;;18.63;;
66751;SDS011;53663;42.676;23.238;2023-02-12T15:31:48;35.25;;;19.55;;
66751;SDS011;53663;42.676;23.238;2023-02-12T15:36:45;33.90;;;18.88;;
66751;SDS011;53663;42.676;23.238;2023-02-12T15:39:16;38.60;;;19.75;;
66751;SDS011;53663;42.676;23.238;2023-02-12T15:41:44;33.20;;;19.33;;
66751;SDS011;53663;42.676;23.238;2023-02-12T15:44:27;46.25;;;21.88;;
66751;SDS011;53663;42.676;23.238;2023-02-12T15:49:26;39.78;;;21.85;;
66751;SDS011;53663;42.676;23.238;2023-02-12T15:51:55;34.33;;;18.85;;
66751;SDS011;53663;42.676;23.238;2023-02-12T15:54:21;36.65;;;21.83;;
66751;SDS011;53663;42.676;23.238;2023-02-12T15:56:47;43.20;;;20.52;;
66751;SDS011;53663;42.676;23.238;2023-02-12T15:59:17;43.70;;;21.95;;
66751;SDS011;53663;42.676;23.238;2023-02-12T16:01:59;36.05;;;20.80;;
66751;SDS011;53663;42.676;23.238;2023-02-12T16:04:32;38.13;;;20.80;;
66751;SDS011;53663;42.676;23.238;2023-02-12T16:07:01;39.03;;;21.70;;
66751;SDS011;53663;42.676;23.238;2023-02-12T16:09:31;38.83;;;22.00;;
66751;SDS011;53663;42.676;23.238;2023-02-12T16:12:00;41.22;;;21.92;;
66751;SDS011;53663;42.676;23.238;2023-02-12T16:14:41;45.22;;;24.08;;
66751;SDS011;53663;42.676;23.238;2023-02-12T16:22:42;40.75;;;22.42;;
66751;SDS011;53663;42.676;23.238;2023-02-12T16:25:17;47.65;;;22.88;;
66751;SDS011;53663;42.676;23.238;2023-02-12T16:27:52;48.10;;;23.15;;
66751;SDS011;53663;42.676;23.238;2023-02-12T16:32:56;47.63;;;23.77;;
66751;SDS011;53663;42.676;23.238;2023-02-12T16:35:30;46.25;;;24.50;;
66751;SDS011;53663;42.676;23.238;2023-02-12T16:46:27;53.20;;;26.88;;
66751;SDS011;53663;42.676;23.238;2023-02-12T16:48:54;58.47;;;26.40;;
66751;SDS011;53663;42.676;23.238;2023-02-12T16:51:26;52.28;;;25.85;;
66751;SDS011;53663;42.676;23.238;2023-02-12T16:53:57;48.83;;;24.13;;
66751;SDS011;53663;42.676;23.238;2023-02-12T16:56:25;57.38;;;28.00;;
66751;SDS011;53663;42.676;23.238;2023-02-12T16:58:58;63.03;;;31.58;;
66751;SDS011;53663;42.676;23.238;2023-02-12T17:01:27;73.97;;;35.47;;
66751;SDS011;53663;42.676;23.238;2023-02-12T17:04:00;80.50;;;36.55;;
66751;SDS011;53663;42.676;23.238;2023-02-12T17:06:30;95.78;;;41.90;;
66751;SDS011;53663;42.676;23.238;2023-02-12T17:08:57;82.25;;;38.67;;
66751;SDS011;53663;42.676;23.238;2023-02-12T17:11:24;85.90;;;43.72;;
66751;SDS011;53663;42.676;23.238;2023-02-12T17:13:52;87.22;;;42.85;;
66751;SDS011;53663;42.676;23.238;2023-02-12T17:16:18;81.90;;;38.28;;
66751;SDS011;53663;42.676;23.238;2023-02-12T17:18:44;71.90;;;35.75;;
66751;SDS011;53663;42.676;23.238;2023-02-12T17:23:56;62.70;;;32.15;;
66751;SDS011;53663;42.676;23.238;2023-02-12T17:26:22;66.07;;;33.30;;
66751;SDS011;53663;42.676;23.238;2023-02-12T17:28:48;73.35;;;34.10;;
66751;SDS011;53663;42.676;23.238;2023-02-12T17:31:14;73.40;;;34.60;;
66751;SDS011;53663;42.676;23.238;2023-02-12T17:33:40;86.25;;;39.33;;
66751;SDS011;53663;42.676;23.238;2023-02-12T17:36:05;106.57;;;41.30;;
66751;SDS011;53663;42.676;23.238;2023-02-12T17:38:31;101.18;;;38.78;;
66751;SDS011;53663;42.676;23.238;2023-02-12T17:40:57;101.65;;;41.45;;
66751;SDS011;53663;42.676;23.238;2023-02-12T17:43:22;102.03;;;41.22;;
66751;SDS011;53663;42.676;23.238;2023-02-12T17:45:48;108.07;;;42.95;;
66751;SDS011;53663;42.676;23.238;2023-02-12T17:48:14;102.07;;;43.20;;
66751;SDS011;53663;42.676;23.238;2023-02-12T17:50:40;130.40;;;47.97;;
66751;SDS011;53663;42.676;23.238;2023-02-12T17:53:06;106.45;;;44.05;;
66751;SDS011;53663;42.676;23.238;2023-02-12T17:55:32;99.60;;;41.97;;
66751;SDS011;53663;42.676;23.238;2023-02-12T17:57:58;76.70;;;34.97;;
66751;SDS011;53663;42.676;23.238;2023-02-12T18:00:27;64.72;;;32.63;;
66751;SDS011;53663;42.676;23.238;2023-02-12T18:02:53;72.95;;;34.05;;
66751;SDS011;53663;42.676;23.238;2023-02-12T18:05:19;70.78;;;33.53;;
66751;SDS011;53663;42.676;23.238;2023-02-12T18:07:45;68.43;;;32.65;;
66751;SDS011;53663;42.676;23.238;2023-02-12T18:10:10;62.47;;;31.40;;
66751;SDS011;53663;42.676;23.238;2023-02-12T18:12:36;66.50;;;33.90;;
66751;SDS011;53663;42.676;23.238;2023-02-12T18:15:03;64.72;;;31.88;;
66751;SDS011;53663;42.676;23.238;2023-02-12T18:17:29;68.60;;;32.83;;
66751;SDS011;53663;42.676;23.238;2023-02-12T18:19:55;68.78;;;31.23;;
66751;SDS011;53663;42.676;23.238;2023-02-12T18:22:21;73.28;;;33.67;;
66751;SDS011;53663;42.676;23.238;2023-02-12T18:24:47;67.55;;;33.00;;
66751;SDS011;53663;42.676;23.238;2023-02-12T18:27:12;74.18;;;36.22;;
66751;SDS011;53663;42.676;23.238;2023-02-12T18:29:39;82.75;;;38.45;;
66751;SDS011;53663;42.676;23.238;2023-02-12T18:32:05;85.65;;;38.60;;
66751;SDS011;53663;42.676;23.238;2023-02-12T18:34:31;82.13;;;38.92;;
66751;SDS011;53663;42.676;23.238;2023-02-12T18:36:56;92.00;;;46.08;;